createdAt,value
2017-12-16T00:00:51.155Z,79.1
2017-12-16T00:01:51.983Z,79.1
2017-12-16T00:02:52.754Z,81.3
2017-12-16T00:03:53.488Z,78.7
2017-12-16T00:04:54.286Z,75.9
2017-12-16T00:05:55.017Z,78.2
2017-12-16T00:06:55.759Z,76.2
2017-12-16T00:07:56.538Z,75.2
2017-12-16T00:08:57.357Z,65.5
2017-12-16T00:09:58.166Z,73.2
2017-12-16T00:10:59.338Z,76.6
2017-12-16T00:12:00.120Z,74.9
2017-12-16T00:13:00.925Z,74.1
2017-12-16T00:14:01.733Z,74.6
2017-12-16T00:15:02.448Z,71.3
2017-12-16T00:16:03.177Z,72.5
2017-12-16T00:17:03.943Z,72.9
2017-12-16T00:18:04.692Z,73.7
2017-12-16T00:19:05.422Z,80.6
2017-12-16T00:20:06.213Z,84.6
2017-12-16T00:21:07.025Z,81.9
2017-12-16T00:22:07.808Z,83.3
2017-12-16T00:23:08.601Z,67.4
2017-12-16T00:24:09.413Z,74.0
2017-12-16T00:25:10.211Z,68.5
2017-12-16T00:26:11.049Z,65.3
2017-12-16T00:27:11.862Z,77.9
2017-12-16T00:28:12.619Z,78.2
2017-12-16T00:29:13.692Z,80.6
2017-12-16T00:30:14.496Z,72.7
2017-12-16T00:31:15.422Z,73.7
2017-12-16T00:32:16.202Z,75.2
2017-12-16T00:33:16.994Z,71.4
2017-12-16T00:34:17.809Z,79.3
2017-12-16T00:35:18.532Z,73.0
2017-12-16T00:36:19.305Z,77.6
2017-12-16T00:37:20.178Z,76.9
2017-12-16T00:38:20.944Z,77.7
2017-12-16T00:39:21.775Z,86.2
2017-12-16T00:40:22.569Z,80.0
2017-12-16T00:41:23.346Z,73.7
2017-12-16T00:42:24.495Z,82.3
2017-12-16T00:43:25.229Z,76.4
2017-12-16T00:44:26.012Z,72.2
2017-12-16T00:45:26.781Z,69.7
2017-12-16T00:46:27.486Z,71.1
2017-12-16T00:47:28.250Z,74.8
2017-12-16T00:48:28.978Z,76.5
2017-12-16T00:49:29.749Z,78.6
2017-12-16T00:50:30.490Z,79.1
2017-12-16T00:51:31.306Z,74.6
2017-12-16T00:52:32.123Z,84.8
2017-12-16T00:53:32.950Z,80.2
2017-12-16T00:54:33.755Z,79.3
2017-12-16T00:55:34.465Z,80.7
2017-12-16T00:56:35.221Z,76.0
2017-12-16T00:57:36.003Z,77.2
2017-12-16T00:58:36.760Z,78.6
2017-12-16T00:59:37.549Z,78.8
2017-12-16T01:00:38.352Z,76.9
2017-12-16T01:01:39.176Z,78.3
2017-12-16T01:02:39.899Z,83.5
2017-12-16T01:03:40.647Z,80.7
2017-12-16T01:04:41.415Z,85.3
2017-12-16T01:05:42.227Z,86.9
2017-12-16T01:06:42.994Z,92.0
2017-12-16T01:07:43.806Z,89.3
2017-12-16T01:08:44.548Z,86.6
2017-12-16T01:09:45.251Z,90.0
2017-12-16T01:10:46.038Z,95.8
2017-12-16T01:11:46.876Z,98.1
2017-12-16T01:12:47.679Z,100.1
2017-12-16T01:13:48.421Z,97.3
2017-12-16T01:14:49.199Z,99.9
2017-12-16T01:15:49.992Z,99.3
2017-12-16T01:16:50.806Z,100.8
2017-12-16T01:17:51.586Z,98.2
2017-12-16T01:18:52.391Z,99.1
2017-12-16T01:19:53.130Z,100.1
2017-12-16T01:20:53.892Z,102.6
2017-12-16T01:21:54.666Z,104.8
2017-12-16T01:22:55.396Z,102.6
2017-12-16T01:23:56.210Z,104.3
2017-12-16T01:24:56.966Z,97.9
2017-12-16T01:25:57.746Z,96.4
2017-12-16T01:26:58.476Z,98.6
2017-12-16T01:27:59.246Z,99.8
2017-12-16T01:28:59.974Z,101.5
2017-12-16T01:30:00.783Z,88.0
2017-12-16T01:31:01.567Z,92.3
2017-12-16T01:32:02.346Z,91.4
2017-12-16T01:33:03.157Z,90.2
2017-12-16T01:34:03.892Z,102.0
2017-12-16T01:35:04.648Z,97.3
2017-12-16T01:36:05.466Z,88.4
2017-12-16T01:37:06.202Z,84.9
2017-12-16T01:38:06.970Z,85.3
2017-12-16T01:39:07.709Z,81.7
2017-12-16T01:40:08.475Z,83.9
2017-12-16T01:41:09.316Z,79.5
2017-12-16T01:42:10.076Z,80.8
2017-12-16T01:43:10.858Z,81.0
2017-12-16T01:44:11.602Z,81.6
2017-12-16T01:45:12.399Z,81.4
2017-12-16T01:46:13.247Z,82.8
2017-12-16T01:47:14.049Z,86.3
2017-12-16T01:48:15.165Z,83.1
2017-12-16T01:49:15.959Z,81.7
2017-12-16T01:50:16.688Z,81.3
2017-12-16T01:51:17.418Z,86.7
2017-12-16T01:52:18.136Z,92.1
2017-12-16T01:53:18.963Z,85.1
2017-12-16T01:54:19.747Z,89.9
2017-12-16T01:55:20.532Z,85.3
2017-12-16T01:56:21.359Z,91.4
2017-12-16T01:57:22.128Z,83.9
2017-12-16T01:58:22.926Z,84.4
2017-12-16T01:59:24.038Z,85.5
2017-12-16T02:00:24.783Z,89.7
2017-12-16T02:01:25.555Z,89.7
2017-12-16T02:02:26.336Z,89.2
2017-12-16T02:03:27.122Z,88.9
2017-12-16T02:04:27.966Z,86.4
2017-12-16T02:05:28.742Z,84.1
2017-12-16T02:06:29.542Z,91.5
2017-12-16T02:07:30.271Z,91.3
2017-12-16T02:08:31.027Z,93.1
2017-12-16T02:09:31.769Z,87.5
2017-12-16T02:10:32.571Z,86.8
2017-12-16T02:11:33.375Z,85.4
2017-12-16T02:12:34.132Z,86.1
2017-12-16T02:13:34.855Z,90.4
2017-12-16T02:14:35.632Z,86.3
2017-12-16T02:15:36.434Z,81.4
2017-12-16T02:16:37.234Z,85.4
2017-12-16T02:17:38.031Z,80.8
2017-12-16T02:18:38.831Z,83.9
2017-12-16T02:19:39.917Z,88.3
2017-12-16T02:20:40.693Z,87.2
2017-12-16T02:21:41.498Z,74.3
2017-12-16T02:22:42.596Z,85.6
2017-12-16T02:23:43.265Z,84.0
2017-12-16T02:24:44.367Z,88.0
2017-12-16T02:25:45.101Z,86.3
2017-12-16T02:26:45.827Z,86.4
2017-12-16T02:27:46.614Z,91.4
2017-12-16T02:28:47.397Z,96.7
2017-12-16T02:29:48.208Z,98.9
2017-12-16T02:30:48.981Z,99.4
2017-12-16T02:31:49.820Z,86.7
2017-12-16T02:32:50.617Z,88.8
2017-12-16T02:33:51.419Z,84.6
2017-12-16T02:34:52.228Z,92.5
2017-12-16T02:35:53.048Z,92.6
2017-12-16T02:36:53.844Z,91.0
2017-12-16T02:37:54.622Z,96.7
2017-12-16T02:38:55.404Z,86.4
2017-12-16T02:39:56.123Z,89.1
2017-12-16T02:40:56.840Z,95.0
2017-12-16T02:41:57.567Z,88.6
2017-12-16T02:42:58.369Z,91.8
2017-12-16T02:43:59.146Z,90.7
2017-12-16T02:44:59.934Z,97.5
2017-12-16T02:46:00.999Z,93.0
2017-12-16T02:47:01.794Z,101.8
2017-12-16T02:48:02.532Z,95.5
2017-12-16T02:49:03.289Z,100.7
2017-12-16T02:50:04.023Z,101.2
2017-12-16T02:51:04.811Z,105.0
2017-12-16T02:52:05.601Z,112.6
2017-12-16T02:53:06.329Z,112.7
2017-12-16T02:54:07.142Z,105.2
2017-12-16T02:55:07.959Z,104.9
2017-12-16T02:56:08.679Z,105.0
2017-12-16T02:57:09.409Z,109.6
2017-12-16T02:58:10.132Z,106.9
2017-12-16T02:59:10.925Z,113.4
2017-12-16T03:00:12.047Z,115.8
2017-12-16T03:01:12.834Z,111.0
2017-12-16T03:02:13.572Z,119.2
2017-12-16T03:03:14.321Z,116.8
2017-12-16T03:04:15.115Z,124.3
2017-12-16T03:05:15.856Z,118.2
2017-12-16T03:06:16.677Z,112.5
2017-12-16T03:07:17.477Z,119.9
2017-12-16T03:08:18.218Z,115.9
2017-12-16T03:09:19.038Z,117.7
2017-12-16T03:10:19.847Z,111.6
2017-12-16T03:11:20.639Z,106.4
2017-12-16T03:12:21.374Z,111.0
2017-12-16T03:13:22.036Z,112.3
2017-12-16T03:14:22.766Z,106.9
2017-12-16T03:15:23.543Z,110.3
2017-12-16T03:16:24.358Z,104.6
2017-12-16T03:17:25.480Z,111.2
2017-12-16T03:18:26.227Z,112.9
2017-12-16T03:19:26.982Z,107.2
2017-12-16T03:20:27.705Z,104.9
2017-12-16T03:21:28.487Z,101.2
2017-12-16T03:22:29.294Z,104.2
2017-12-16T03:23:30.095Z,102.3
2017-12-16T03:24:30.907Z,109.1
2017-12-16T03:25:31.686Z,105.3
2017-12-16T03:26:32.410Z,105.2
2017-12-16T03:27:33.215Z,100.2
2017-12-16T03:28:33.956Z,94.0
2017-12-16T03:29:34.730Z,93.9
2017-12-16T03:30:38.484Z,103.0
2017-12-16T03:31:39.285Z,92.7
2017-12-16T03:32:40.075Z,92.0
2017-12-16T03:33:40.873Z,93.2
2017-12-16T03:34:41.682Z,96.4
2017-12-16T03:35:42.440Z,96.7
2017-12-16T03:36:43.152Z,98.0
2017-12-16T03:37:44.062Z,92.0
2017-12-16T03:38:44.854Z,82.2
2017-12-16T03:39:45.646Z,84.1
2017-12-16T03:40:46.367Z,81.9
2017-12-16T03:41:47.087Z,79.8
2017-12-16T03:42:47.796Z,75.7
2017-12-16T03:43:48.516Z,74.4
2017-12-16T03:44:49.592Z,72.7
2017-12-16T03:45:50.355Z,73.6
2017-12-16T03:46:51.071Z,78.1
2017-12-16T03:47:51.832Z,75.5
2017-12-16T03:48:52.569Z,75.1
2017-12-16T03:49:53.635Z,79.4
2017-12-16T03:50:54.365Z,81.1
2017-12-16T03:51:55.079Z,84.2
2017-12-16T03:52:55.800Z,85.5
2017-12-16T03:53:56.588Z,80.5
2017-12-16T03:54:57.311Z,79.2
2017-12-16T03:55:58.030Z,78.4
2017-12-16T03:56:58.738Z,78.3
2017-12-16T03:57:59.449Z,79.7
2017-12-16T03:59:00.171Z,79.3
2017-12-16T04:00:00.893Z,75.2
2017-12-16T04:01:01.611Z,78.7
2017-12-16T04:02:02.330Z,78.1
2017-12-16T04:03:03.058Z,76.7
2017-12-16T04:04:03.819Z,72.2
2017-12-16T04:05:04.544Z,69.9
2017-12-16T04:06:05.289Z,69.9
2017-12-16T04:07:06.079Z,69.1
2017-12-16T04:08:06.845Z,67.6
2017-12-16T04:09:07.842Z,68.9
2017-12-16T04:10:08.541Z,65.7
2017-12-16T04:11:09.889Z,68.5
2017-12-16T04:12:10.605Z,67.7
2017-12-16T04:13:11.548Z,66.3
2017-12-16T04:14:12.361Z,64.3
2017-12-16T04:15:13.148Z,65.5
2017-12-16T04:16:13.945Z,64.9
2017-12-16T04:17:14.684Z,61.1
2017-12-16T04:18:15.483Z,62.3
2017-12-16T04:19:16.570Z,62.8
2017-12-16T04:20:17.300Z,60.4
2017-12-16T04:21:18.020Z,63.6
2017-12-16T04:22:18.748Z,59.7
2017-12-16T04:23:19.520Z,61.3
2017-12-16T04:24:21.311Z,59.2
2017-12-16T04:25:21.978Z,57.7
2017-12-16T04:26:22.705Z,57.9
2017-12-16T04:27:23.431Z,58.9
2017-12-16T04:28:24.172Z,56.5
2017-12-16T04:29:24.916Z,57.8
2017-12-16T04:30:25.637Z,56.5
2017-12-16T04:31:26.370Z,55.5
2017-12-16T04:32:27.088Z,57.5
2017-12-16T04:33:27.872Z,56.2
2017-12-16T04:34:28.645Z,56.3
2017-12-16T04:35:29.369Z,53.9
2017-12-16T04:36:30.169Z,53.7
2017-12-16T04:37:30.995Z,54.8
2017-12-16T04:38:31.775Z,53.1
2017-12-16T04:39:32.584Z,54.7
2017-12-16T04:40:33.311Z,52.6
2017-12-16T04:41:34.120Z,52.8
2017-12-16T04:42:34.846Z,52.8
2017-12-16T04:43:35.564Z,55.2
2017-12-16T04:44:36.782Z,53.2
2017-12-16T04:45:37.452Z,54.3
2017-12-16T04:46:38.167Z,52.7
2017-12-16T04:47:38.884Z,52.2
2017-12-16T04:49:53.882Z,52.8
2017-12-16T04:50:54.667Z,52.5
2017-12-16T04:51:55.391Z,54.2
2017-12-16T04:52:56.111Z,51.4
2017-12-16T04:53:56.880Z,55.4
2017-12-16T04:54:57.597Z,51.9
2017-12-16T04:55:58.320Z,51.5
2017-12-16T04:56:59.062Z,51.0
2017-12-16T04:57:59.830Z,47.9
2017-12-16T04:59:00.541Z,51.4
2017-12-16T05:00:01.301Z,48.9
2017-12-16T05:01:02.115Z,49.3
2017-12-16T05:02:02.791Z,49.9
2017-12-16T05:03:03.522Z,50.5
2017-12-16T05:04:04.313Z,47.7
2017-12-16T05:05:05.041Z,47.9
2017-12-16T05:06:05.749Z,48.5
2017-12-16T05:07:06.471Z,49.5
2017-12-16T05:08:07.536Z,48.8
2017-12-16T05:09:08.261Z,48.4
2017-12-16T05:10:08.979Z,49.6
2017-12-16T05:11:09.770Z,48.4
2017-12-16T05:12:10.484Z,48.5
2017-12-16T05:13:11.603Z,48.8
2017-12-16T05:14:12.397Z,48.0
2017-12-16T05:15:13.109Z,48.2
2017-12-16T05:16:13.893Z,46.7
2017-12-16T05:17:14.629Z,50.0
2017-12-16T05:18:15.646Z,46.9
2017-12-16T05:19:16.374Z,48.5
2017-12-16T05:20:17.157Z,48.3
2017-12-16T05:21:17.881Z,48.1
2017-12-16T05:22:18.600Z,48.6
2017-12-16T05:23:19.367Z,47.5
2017-12-16T05:24:20.086Z,48.5
2017-12-16T05:25:20.812Z,49.8
2017-12-16T05:26:21.577Z,49.2
2017-12-16T05:27:22.355Z,47.6
2017-12-16T05:28:23.142Z,51.8
2017-12-16T05:29:23.916Z,50.1
2017-12-16T05:30:24.722Z,49.7
2017-12-16T05:31:25.508Z,49.8
2017-12-16T05:32:26.290Z,48.6
2017-12-16T05:33:27.094Z,51.2
2017-12-16T05:34:27.807Z,51.3
2017-12-16T05:35:28.519Z,49.1
2017-12-16T05:36:29.319Z,49.7
2017-12-16T05:37:30.095Z,49.7
2017-12-16T05:38:31.196Z,49.2
2017-12-16T05:39:31.922Z,50.5
2017-12-16T05:40:32.726Z,48.1
2017-12-16T05:41:33.531Z,49.6
2017-12-16T05:42:34.261Z,48.6
2017-12-16T05:43:34.981Z,49.0
2017-12-16T05:44:35.697Z,49.0
2017-12-16T05:45:36.423Z,49.2
2017-12-16T05:46:37.212Z,48.6
2017-12-16T05:47:37.983Z,50.5
2017-12-16T05:48:39.491Z,48.8
2017-12-16T05:49:40.209Z,48.2
2017-12-16T05:50:40.984Z,48.6
2017-12-16T05:51:41.708Z,48.6
2017-12-16T05:52:42.418Z,50.0
2017-12-16T05:53:43.267Z,49.7
2017-12-16T05:54:43.988Z,49.0
2017-12-16T05:55:44.779Z,50.7
2017-12-16T05:56:45.496Z,50.0
2017-12-16T05:57:46.232Z,48.4
2017-12-16T05:58:47.035Z,48.4
2017-12-16T05:59:47.837Z,52.2
2017-12-16T06:00:48.564Z,52.6
2017-12-16T06:01:49.331Z,52.2
2017-12-16T06:02:50.047Z,52.5
2017-12-16T06:03:51.067Z,51.1
2017-12-16T06:04:51.792Z,52.9
2017-12-16T06:05:52.581Z,54.0
2017-12-16T06:06:53.295Z,53.5
2017-12-16T06:07:54.020Z,51.3
2017-12-16T06:08:55.047Z,50.9
2017-12-16T06:09:55.840Z,52.8
2017-12-16T06:10:56.562Z,50.6
2017-12-16T06:11:57.284Z,50.7
2017-12-16T06:12:58.013Z,50.4
2017-12-16T06:13:58.727Z,48.5
2017-12-16T06:14:59.461Z,49.1
2017-12-16T06:16:00.177Z,48.5
2017-12-16T06:17:00.892Z,50.2
2017-12-16T06:18:01.606Z,50.5
2017-12-16T06:19:02.381Z,50.3
2017-12-16T06:20:03.091Z,47.8
2017-12-16T06:21:03.814Z,49.5
2017-12-16T06:22:04.542Z,49.2
2017-12-16T06:23:05.262Z,51.7
2017-12-16T06:24:06.364Z,52.2
2017-12-16T06:25:07.158Z,51.6
2017-12-16T06:26:07.879Z,52.4
2017-12-16T06:27:08.646Z,50.5
2017-12-16T06:28:09.360Z,52.4
2017-12-16T06:29:10.157Z,52.3
2017-12-16T06:30:10.937Z,50.7
2017-12-16T06:31:11.660Z,50.5
2017-12-16T06:32:12.728Z,50.9
2017-12-16T06:33:13.530Z,49.8
2017-12-16T06:34:14.286Z,49.1
2017-12-16T06:35:15.082Z,48.6
2017-12-16T06:36:15.803Z,50.1
2017-12-16T06:37:16.563Z,48.5
2017-12-16T06:38:17.279Z,47.7
2017-12-16T06:39:18.076Z,46.9
2017-12-16T06:40:18.796Z,46.8
2017-12-16T06:41:19.520Z,47.4
2017-12-16T06:42:20.238Z,45.8
2017-12-16T06:43:21.041Z,45.9
2017-12-16T06:44:21.767Z,45.5
2017-12-16T06:45:22.491Z,46.3
2017-12-16T06:46:23.230Z,46.8
2017-12-16T06:47:24.367Z,44.3
2017-12-16T06:48:25.099Z,46.5
2017-12-16T06:49:25.853Z,45.7
2017-12-16T06:50:26.572Z,45.7
2017-12-16T06:51:27.349Z,46.8
2017-12-16T06:52:28.216Z,45.1
2017-12-16T06:53:29.010Z,45.7
2017-12-16T06:54:29.721Z,46.3
2017-12-16T06:55:30.438Z,45.9
2017-12-16T06:56:31.151Z,43.3
2017-12-16T06:57:31.967Z,44.1
2017-12-16T06:58:32.678Z,43.6
2017-12-16T06:59:33.458Z,43.4
2017-12-16T07:00:34.174Z,42.8
2017-12-16T07:01:34.904Z,43.1
2017-12-16T07:02:35.670Z,45.2
2017-12-16T07:03:36.393Z,45.0
2017-12-16T07:04:37.107Z,44.1
2017-12-16T07:05:37.817Z,44.6
2017-12-16T07:06:38.541Z,45.2
2017-12-16T07:07:39.972Z,44.0
2017-12-16T07:08:40.686Z,46.2
2017-12-16T07:09:41.441Z,46.8
2017-12-16T07:10:42.171Z,47.6
2017-12-16T07:11:42.943Z,47.5
2017-12-16T07:12:43.728Z,45.6
2017-12-16T07:13:44.450Z,44.6
2017-12-16T07:14:45.236Z,45.8
2017-12-16T07:15:45.949Z,46.7
2017-12-16T07:16:46.727Z,45.5
2017-12-16T07:17:47.504Z,48.4
2017-12-16T07:18:48.292Z,47.2
2017-12-16T07:19:49.032Z,46.3
2017-12-16T07:20:49.803Z,45.2
2017-12-16T07:21:50.605Z,45.1
2017-12-16T07:22:51.328Z,46.2
2017-12-16T07:23:52.047Z,43.6
2017-12-16T07:24:52.757Z,42.9
2017-12-16T07:25:53.477Z,43.9
2017-12-16T07:26:54.199Z,44.0
2017-12-16T07:27:54.926Z,46.7
2017-12-16T07:28:55.661Z,48.1
2017-12-16T07:29:56.462Z,45.0
2017-12-16T07:30:57.597Z,51.7
2017-12-16T07:31:58.322Z,57.9
2017-12-16T07:32:59.117Z,57.5
2017-12-16T07:33:59.851Z,55.1
2017-12-16T07:35:00.567Z,49.1
2017-12-16T07:36:01.295Z,48.7
2017-12-16T07:37:02.097Z,49.1
2017-12-16T07:38:02.820Z,47.1
2017-12-16T07:39:03.552Z,46.8
2017-12-16T07:40:04.365Z,44.8
2017-12-16T07:41:05.137Z,46.8
2017-12-16T07:42:05.876Z,45.1
2017-12-16T07:43:06.660Z,47.7
2017-12-16T07:44:07.382Z,47.3
2017-12-16T07:45:08.162Z,50.6
2017-12-16T07:46:08.893Z,46.1
2017-12-16T07:47:09.698Z,41.5
2017-12-16T07:48:10.421Z,42.5
2017-12-16T07:49:11.488Z,45.8
2017-12-16T07:50:12.211Z,46.3
2017-12-16T07:51:12.977Z,46.1
2017-12-16T07:52:13.698Z,47.6
2017-12-16T07:53:14.430Z,45.3
2017-12-16T07:54:15.232Z,42.6
2017-12-16T07:55:16.017Z,42.5
2017-12-16T07:56:16.744Z,43.8
2017-12-16T07:57:17.473Z,45.4
2017-12-16T07:58:18.251Z,46.3
2017-12-16T07:59:19.077Z,43.6
2017-12-16T08:00:19.809Z,46.5
2017-12-16T08:01:20.597Z,44.5
2017-12-16T08:02:21.332Z,44.7
2017-12-16T08:03:22.128Z,44.5
2017-12-16T08:04:22.912Z,44.9
2017-12-16T08:05:23.650Z,44.8
2017-12-16T08:06:24.381Z,43.5
2017-12-16T08:07:25.104Z,44.2
2017-12-16T08:08:25.832Z,46.0
2017-12-16T08:09:26.562Z,45.0
2017-12-16T08:10:27.328Z,45.7
2017-12-16T08:11:28.062Z,46.9
2017-12-16T08:12:28.838Z,49.2
2017-12-16T08:13:29.638Z,48.3
2017-12-16T08:14:30.768Z,46.1
2017-12-16T08:15:31.481Z,46.9
2017-12-16T08:16:32.216Z,43.9
2017-12-16T08:17:33.013Z,40.4
2017-12-16T08:18:33.814Z,40.9
2017-12-16T08:19:34.659Z,42.7
2017-12-16T08:20:35.388Z,40.9
2017-12-16T08:21:36.111Z,43.5
2017-12-16T08:22:36.839Z,42.2
2017-12-16T08:23:37.654Z,42.3
2017-12-16T08:24:38.380Z,42.1
2017-12-16T08:25:39.130Z,41.7
2017-12-16T08:26:39.890Z,40.9
2017-12-16T08:27:40.657Z,39.1
2017-12-16T08:28:41.390Z,42.0
2017-12-16T08:29:42.120Z,42.7
2017-12-16T08:30:42.851Z,40.3
2017-12-16T08:31:43.637Z,41.7
2017-12-16T08:32:44.399Z,39.4
2017-12-16T08:33:45.185Z,38.9
2017-12-16T08:34:45.918Z,40.0
2017-12-16T08:35:46.650Z,38.1
2017-12-16T08:36:47.382Z,36.9
2017-12-16T08:37:48.153Z,38.1
2017-12-16T08:38:48.880Z,38.0
2017-12-16T08:39:49.615Z,36.0
2017-12-16T08:40:50.334Z,36.8
2017-12-16T08:41:51.116Z,34.3
2017-12-16T08:42:51.850Z,34.5
2017-12-16T08:43:52.654Z,35.7
2017-12-16T08:44:53.292Z,35.7
2017-12-16T08:45:54.026Z,35.7
2017-12-16T08:46:54.693Z,32.7
2017-12-16T08:47:55.492Z,34.3
2017-12-16T08:48:56.284Z,34.8
2017-12-16T08:49:57.107Z,33.6
2017-12-16T08:50:57.811Z,33.1
2017-12-16T08:51:58.581Z,34.6
2017-12-16T08:53:00.632Z,34.6
2017-12-16T08:54:02.263Z,34.2
2017-12-16T08:55:03.340Z,35.7
2017-12-16T08:56:04.312Z,34.8
2017-12-16T08:57:05.209Z,35.0
2017-12-16T08:58:05.987Z,35.1
2017-12-16T08:59:06.721Z,36.1
2017-12-16T09:00:07.464Z,36.2
2017-12-16T09:01:08.182Z,35.4
2017-12-16T09:02:08.898Z,36.5
2017-12-16T09:03:09.667Z,35.6
2017-12-16T09:04:10.444Z,37.0
2017-12-16T09:05:11.421Z,37.0
2017-12-16T09:06:12.153Z,35.4
2017-12-16T09:07:12.954Z,34.6
2017-12-16T09:08:13.753Z,34.7
2017-12-16T09:09:14.479Z,33.2
2017-12-16T09:10:15.591Z,33.7
2017-12-16T09:11:16.357Z,33.0
2017-12-16T09:12:17.084Z,34.5
2017-12-16T09:13:17.809Z,31.8
2017-12-16T09:14:18.597Z,34.4
2017-12-16T09:15:19.339Z,33.1
2017-12-16T09:16:20.133Z,32.9
2017-12-16T09:17:20.923Z,33.7
2017-12-16T09:18:21.651Z,31.2
2017-12-16T09:19:22.372Z,32.7
2017-12-16T09:20:23.136Z,33.4
2017-12-16T09:21:23.873Z,33.4
2017-12-16T09:22:24.622Z,32.3
2017-12-16T09:23:25.358Z,29.8
2017-12-16T09:24:26.133Z,29.9
2017-12-16T09:25:26.985Z,29.4
2017-12-16T09:26:27.698Z,29.0
2017-12-16T09:27:28.413Z,29.8
2017-12-16T09:28:29.196Z,28.8
2017-12-16T09:29:29.917Z,26.9
2017-12-16T09:30:30.688Z,26.5
2017-12-16T09:31:31.401Z,26.7
2017-12-16T09:32:32.131Z,28.1
2017-12-16T09:33:32.847Z,27.4
2017-12-16T09:34:33.596Z,27.6
2017-12-16T09:35:34.298Z,27.8
2017-12-16T09:36:35.033Z,28.2
2017-12-16T09:37:35.904Z,28.0
2017-12-16T09:38:36.694Z,28.4
2017-12-16T09:39:37.422Z,28.3
2017-12-16T09:40:38.209Z,28.4
2017-12-16T09:41:38.928Z,27.9
2017-12-16T09:42:39.791Z,28.6
2017-12-16T09:43:40.516Z,27.1
2017-12-16T09:44:41.281Z,27.4
2017-12-16T09:45:42.020Z,29.5
2017-12-16T09:46:42.789Z,26.9
2017-12-16T09:47:43.592Z,25.1
2017-12-16T09:48:44.362Z,23.5
2017-12-16T09:49:45.100Z,23.4
2017-12-16T09:50:45.828Z,27.6
2017-12-16T09:51:46.915Z,31.7
2017-12-16T09:52:47.574Z,25.2
2017-12-16T09:53:48.351Z,25.4
2017-12-16T09:54:49.146Z,24.2
2017-12-16T09:55:49.987Z,28.9
2017-12-16T09:56:50.732Z,26.4
2017-12-16T09:57:51.448Z,24.7
2017-12-16T09:58:52.173Z,22.8
2017-12-16T09:59:52.991Z,22.3
2017-12-16T10:00:54.418Z,22.8
2017-12-16T10:01:55.160Z,26.9
2017-12-16T10:02:55.925Z,23.9
2017-12-16T10:03:56.699Z,22.0
2017-12-16T10:04:57.422Z,21.1
2017-12-16T10:05:58.193Z,23.1
2017-12-16T10:06:58.921Z,23.4
2017-12-16T10:07:59.655Z,22.6
2017-12-16T10:09:00.427Z,22.8
2017-12-16T10:10:01.151Z,21.8
2017-12-16T10:11:01.876Z,22.0
2017-12-16T10:12:02.668Z,21.2
2017-12-16T10:13:03.406Z,21.4
2017-12-16T10:14:04.206Z,20.4
2017-12-16T10:15:04.997Z,19.6
2017-12-16T10:16:05.722Z,18.6
2017-12-16T10:17:06.439Z,18.3
2017-12-16T10:18:07.161Z,18.9
2017-12-16T10:19:07.931Z,18.7
2017-12-16T10:20:08.685Z,18.8
2017-12-16T10:21:09.472Z,19.1
2017-12-16T10:22:10.209Z,20.3
2017-12-16T10:23:11.004Z,20.0
2017-12-16T10:24:11.753Z,20.7
2017-12-16T10:25:12.578Z,21.9
2017-12-16T10:26:13.298Z,22.0
2017-12-16T10:27:14.041Z,22.3
2017-12-16T10:28:14.757Z,20.4
2017-12-16T10:29:15.494Z,20.4
2017-12-16T10:30:16.279Z,20.0
2017-12-16T10:31:17.012Z,18.6
2017-12-16T10:32:17.814Z,20.4
2017-12-16T10:33:18.533Z,20.0
2017-12-16T10:34:19.250Z,20.1
2017-12-16T10:35:20.093Z,20.5
2017-12-16T10:36:20.903Z,19.6
2017-12-16T10:37:21.628Z,17.0
2017-12-16T10:38:22.426Z,16.8
2017-12-16T10:39:23.155Z,16.6
2017-12-16T10:40:23.962Z,16.0
2017-12-16T10:41:24.761Z,15.8
2017-12-16T10:42:25.480Z,15.2
2017-12-16T10:43:26.220Z,15.4
2017-12-16T10:44:26.981Z,17.0
2017-12-16T10:45:27.703Z,15.4
2017-12-16T10:46:28.479Z,15.1
2017-12-16T10:47:29.202Z,13.8
2017-12-16T10:48:29.984Z,13.7
2017-12-16T10:49:30.711Z,13.2
2017-12-16T10:50:31.473Z,13.7
2017-12-16T10:51:32.232Z,11.9
2017-12-16T10:52:33.028Z,13.3
2017-12-16T10:53:34.102Z,13.0
2017-12-16T10:54:34.874Z,13.3
2017-12-16T10:55:35.642Z,13.6
2017-12-16T10:56:36.377Z,13.0
2017-12-16T10:57:37.139Z,12.6
2017-12-16T10:58:37.911Z,13.5
2017-12-16T10:59:38.654Z,11.9
2017-12-16T11:00:39.418Z,12.3
2017-12-16T11:01:40.139Z,14.1
2017-12-16T11:02:40.864Z,11.7
2017-12-16T11:03:41.707Z,12.5
2017-12-16T11:04:42.430Z,11.8
2017-12-16T11:05:43.158Z,11.7
2017-12-16T11:06:43.956Z,12.7
2017-12-16T11:07:44.773Z,13.6
2017-12-16T11:08:45.599Z,13.8
2017-12-16T11:09:46.332Z,14.3
2017-12-16T11:10:47.063Z,13.5
2017-12-16T11:11:47.863Z,15.3
2017-12-16T11:12:48.573Z,16.0
2017-12-16T11:13:49.363Z,17.3
2017-12-16T11:14:50.171Z,17.8
2017-12-16T11:15:50.898Z,15.8
2017-12-16T11:16:51.630Z,15.1
2017-12-16T11:17:52.346Z,13.5
2017-12-16T11:18:53.073Z,13.5
2017-12-16T11:19:53.876Z,12.8
2017-12-16T11:20:54.598Z,13.7
2017-12-16T11:21:55.333Z,12.6
2017-12-16T11:22:56.124Z,12.6
2017-12-16T11:23:56.910Z,13.5
2017-12-16T11:24:57.640Z,12.6
2017-12-16T11:25:58.425Z,13.1
2017-12-16T11:26:59.151Z,12.7
2017-12-16T11:27:59.876Z,12.3
2017-12-16T11:29:00.614Z,11.4
2017-12-16T11:30:01.691Z,10.1
2017-12-16T11:31:02.419Z,10.5
2017-12-16T11:32:03.193Z,9.8
2017-12-16T11:33:03.982Z,10.0
2017-12-16T11:34:04.680Z,10.1
2017-12-16T11:35:05.521Z,9.4
2017-12-16T11:36:06.303Z,8.9
2017-12-16T11:37:07.085Z,8.4
2017-12-16T11:38:07.803Z,7.9
2017-12-16T11:39:08.582Z,8.0
2017-12-16T11:40:09.385Z,9.2
2017-12-16T11:41:10.190Z,8.7
2017-12-16T11:42:10.923Z,10.0
2017-12-16T11:43:11.645Z,9.8
2017-12-16T11:44:12.372Z,8.3
2017-12-16T11:45:13.475Z,9.3
2017-12-16T11:46:14.154Z,8.1
2017-12-16T11:47:14.872Z,8.9
2017-12-16T11:48:15.694Z,8.8
2017-12-16T11:49:16.439Z,9.5
2017-12-16T11:50:17.170Z,7.9
2017-12-16T11:51:17.955Z,8.4
2017-12-16T11:52:18.686Z,8.3
2017-12-16T11:53:19.411Z,8.1
2017-12-16T11:54:20.198Z,8.8
2017-12-16T11:55:20.986Z,8.6
2017-12-16T11:56:21.706Z,8.5
2017-12-16T11:57:22.427Z,8.9
2017-12-16T11:58:23.241Z,7.2
2017-12-16T11:59:23.999Z,7.7
2017-12-16T12:00:25.826Z,8.1
2017-12-16T12:01:27.877Z,8.9
2017-12-16T12:03:31.059Z,8.0
2017-12-16T12:04:31.977Z,8.2
2017-12-16T12:05:33.945Z,8.9
2017-12-16T12:06:35.110Z,8.1
2017-12-16T12:07:38.015Z,8.6
2017-12-16T12:08:40.124Z,7.4
2017-12-16T12:09:41.595Z,8.3
2017-12-16T12:10:43.279Z,7.3
2017-12-16T12:11:44.617Z,7.9
2017-12-16T12:12:45.531Z,7.6
2017-12-16T12:13:46.244Z,8.3
2017-12-16T12:14:47.329Z,7.6
2017-12-16T12:15:48.134Z,9.1
2017-12-16T12:16:48.917Z,8.7
2017-12-16T12:17:49.638Z,8.2
2017-12-16T12:18:50.448Z,7.3
2017-12-16T12:19:51.273Z,8.3
2017-12-16T12:20:52.000Z,7.5
2017-12-16T12:21:52.731Z,6.8
2017-12-16T12:22:53.555Z,7.7
2017-12-16T12:23:54.306Z,8.2
2017-12-16T12:24:55.026Z,8.6
2017-12-16T12:25:55.811Z,7.1
2017-12-16T12:26:56.538Z,7.2
2017-12-16T12:27:57.254Z,8.1
2017-12-16T12:28:58.046Z,7.5
2017-12-16T12:29:58.772Z,7.7
2017-12-16T12:30:59.556Z,8.0
2017-12-16T12:32:00.331Z,6.8
2017-12-16T12:33:01.058Z,6.4
2017-12-16T12:34:01.842Z,6.8
2017-12-16T12:35:02.626Z,6.3
2017-12-16T12:36:03.288Z,6.4
2017-12-16T12:37:04.127Z,6.4
2017-12-16T12:38:04.874Z,7.1
2017-12-16T12:39:05.655Z,6.6
2017-12-16T12:40:06.369Z,5.9
2017-12-16T12:41:07.089Z,5.8
2017-12-16T12:42:07.871Z,5.5
2017-12-16T12:43:08.594Z,5.0
2017-12-16T12:44:09.327Z,5.7
2017-12-16T12:45:10.068Z,5.4
2017-12-16T12:48:29.950Z,5.3
2017-12-16T12:49:31.306Z,6.5
2017-12-16T12:50:32.373Z,5.8
2017-12-16T12:51:33.563Z,6.4
2017-12-16T12:52:34.307Z,5.2
2017-12-16T12:53:36.236Z,6.4
2017-12-16T12:54:37.677Z,6.2
2017-12-16T12:55:38.414Z,6.6
2017-12-16T12:56:40.420Z,5.4
2017-12-16T12:57:42.541Z,6.6
2017-12-16T12:58:43.957Z,7.8
2017-12-16T13:00:48.948Z,7.0
2017-12-16T13:01:49.864Z,5.7
2017-12-16T13:02:50.588Z,5.2
2017-12-16T13:03:51.325Z,5.5
2017-12-16T13:04:52.080Z,5.2
2017-12-16T13:05:53.045Z,5.8
2017-12-16T13:06:54.955Z,5.5
2017-12-16T13:07:57.090Z,5.5
2017-12-16T13:08:58.510Z,5.6
2017-12-16T13:09:59.517Z,6.0
2017-12-16T13:11:00.376Z,6.1
2017-12-16T13:12:01.194Z,5.5
2017-12-16T13:13:03.743Z,5.5
2017-12-16T13:14:07.121Z,5.4
2017-12-16T13:15:09.144Z,5.6
2017-12-16T13:16:11.028Z,5.5
2017-12-16T13:17:12.966Z,6.4
2017-12-16T13:18:14.074Z,8.5
2017-12-16T13:19:15.495Z,6.3
2017-12-16T13:20:17.527Z,5.7
2017-12-16T13:21:19.231Z,5.9
2017-12-16T13:22:20.405Z,5.8
2017-12-16T13:23:21.411Z,6.9
2017-12-16T13:24:23.762Z,6.5
2017-12-16T13:25:25.856Z,6.0
2017-12-16T13:26:26.700Z,6.0
2017-12-16T13:27:29.086Z,5.1
2017-12-16T13:28:31.181Z,7.0
2017-12-16T13:29:33.720Z,6.2
2017-12-16T13:30:35.377Z,6.0
2017-12-16T13:31:37.594Z,6.0
2017-12-16T13:32:38.867Z,6.1
2017-12-16T13:33:39.563Z,5.7
2017-12-16T13:34:40.359Z,5.8
2017-12-16T13:35:41.144Z,6.0
2017-12-16T13:36:43.072Z,5.9
2017-12-16T13:37:45.278Z,5.3